Time;durP1;ratioP1;P1;durP2;ratioP2;P2;SDS_P1;SDS_P2;PMS_P1;PMS_P2;Temp;Humidity;BMP_temperature;BMP_pressure;BME280_temperature;BME280_humidity;BME280_pressure;Samples;Min_cycle;Max_cycle;Signal;HPM_P1;HPM_P2
2021/01/31 00:01:59;;;;;;;2.20;1.63;;;16.40;57.60;;;;;;5040047;28;20047;-73
2021/01/31 00:04:25;;;;;;;3.03;1.85;;;16.40;57.50;;;;;;5051931;28;20022;-73
2021/01/31 00:06:50;;;;;;;3.33;2.20;;;16.40;57.50;;;;;;5051497;28;20029;-73
2021/01/31 00:09:16;;;;;;;2.45;1.73;;;16.30;57.50;;;;;;5051784;28;20501;-73
2021/01/31 00:11:41;;;;;;;2.72;1.73;;;16.30;57.50;;;;;;5051655;28;20025;-73
2021/01/31 00:14:07;;;;;;;2.28;1.75;;;16.30;57.40;;;;;;5051676;28;20079;-73
2021/01/31 00:16:32;;;;;;;2.42;1.60;;;16.20;57.30;;;;;;5051521;28;20480;-74
2021/01/31 00:18:58;;;;;;;2.35;1.65;;;16.20;57.30;;;;;;5052111;28;20063;-73
2021/01/31 00:21:23;;;;;;;2.10;1.52;;;16.20;57.30;;;;;;5051412;28;20442;-73
2021/01/31 00:23:49;;;;;;;2.05;1.65;;;16.20;57.30;;;;;;5051093;28;20021;-73
2021/01/31 00:26:15;;;;;;;2.97;1.85;;;16.10;57.30;;;;;;5051502;28;20544;-73
2021/01/31 00:28:40;;;;;;;2.88;1.50;;;16.10;57.30;;;;;;5051237;28;20036;-73
2021/01/31 00:31:06;;;;;;;2.80;1.45;;;16.10;57.20;;;;;;5050508;28;20413;-73
2021/01/31 00:33:32;;;;;;;2.42;1.63;;;16.10;57.20;;;;;;5031674;28;20021;-76
2021/01/31 00:35:58;;;;;;;2.70;1.63;;;16.00;57.20;;;;;;5031548;28;20025;-73
2021/01/31 00:38:25;;;;;;;2.08;1.48;;;16.00;57.20;;;;;;5031371;28;20021;-73
2021/01/31 00:40:52;;;;;;;2.88;1.65;;;16.00;57.20;;;;;;5042364;28;20029;-73
2021/01/31 00:43:18;;;;;;;2.10;1.52;;;16.00;57.30;;;;;;5034866;28;20037;-73
2021/01/31 00:45:44;;;;;;;2.70;1.70;;;15.90;57.20;;;;;;5031104;28;20032;-73
2021/01/31 00:48:10;;;;;;;3.15;1.60;;;15.90;57.20;;;;;;5031367;28;20032;-73
2021/01/31 00:50:39;;;;;;;2.83;1.80;;;15.90;57.10;;;;;;5031091;28;20474;-73
2021/01/31 00:53:05;;;;;;;2.60;1.70;;;15.90;57.70;;;;;;5029740;28;20029;-72
2021/01/31 00:55:31;;;;;;;2.55;1.75;;;15.90;57.20;;;;;;5030730;28;20029;-73
2021/01/31 00:57:57;;;;;;;3.22;1.92;;;15.90;57.20;;;;;;5030261;28;20441;-73
2021/01/31 01:00:34;;;;;;;3.92;1.77;;;15.80;57.20;;;;;;5031154;28;20021;-73
2021/01/31 01:03:00;;;;;;;2.88;1.90;;;15.80;57.10;;;;;;5047031;28;20024;-73
2021/01/31 01:05:28;;;;;;;3.90;2.08;;;15.80;57.10;;;;;;5039365;28;20044;-73
2021/01/31 01:07:54;;;;;;;2.90;1.83;;;15.70;57.10;;;;;;5029328;28;20171;-73
2021/01/31 01:10:25;;;;;;;3.08;1.60;;;15.70;57.60;;;;;;5031086;28;20075;-72
2021/01/31 01:12:51;;;;;;;2.67;2.10;;;15.70;57.00;;;;;;5030815;28;20030;-72
2021/01/31 01:15:19;;;;;;;2.75;1.70;;;15.70;57.50;;;;;;5031019;28;20048;-73
2021/01/31 01:17:45;;;;;;;2.38;1.98;;;15.70;57.00;;;;;;5030774;28;20028;-72
2021/01/31 01:20:11;;;;;;;3.03;1.85;;;15.70;56.90;;;;;;5030757;28;20389;-72
2021/01/31 01:22:37;;;;;;;4.05;2.15;;;15.60;56.90;;;;;;5030699;28;20079;-72
2021/01/31 01:25:05;;;;;;;2.53;1.63;;;15.60;56.90;;;;;;5030885;28;20537;-73
2021/01/31 01:27:31;;;;;;;2.47;1.67;;;15.60;57.00;;;;;;5031249;28;20060;-72
2021/01/31 01:29:58;;;;;;;2.92;1.85;;;15.60;57.00;;;;;;5037118;28;20074;-72
2021/01/31 01:32:23;;;;;;;2.58;1.63;;;15.50;57.00;;;;;;5039111;28;20033;-72
2021/01/31 01:34:49;;;;;;;3.03;2.13;;;15.50;57.50;;;;;;5030520;28;20029;-73
2021/01/31 01:37:15;;;;;;;2.95;2.10;;;15.50;56.90;;;;;;5030879;28;20020;-75
2021/01/31 01:39:41;;;;;;;3.67;2.22;;;15.50;56.80;;;;;;5030511;28;20029;-72
2021/01/31 01:42:08;;;;;;;3.85;1.88;;;15.50;56.90;;;;;;5030813;28;20068;-73
2021/01/31 01:44:35;;;;;;;2.60;1.83;;;15.50;56.90;;;;;;5030274;28;20076;-73
2021/01/31 01:47:05;;;;;;;2.63;1.88;;;15.50;56.90;;;;;;5030910;28;20029;-72
2021/01/31 01:49:35;;;;;;;2.63;1.83;;;15.50;56.80;;;;;;5030735;28;20100;-73
2021/01/31 01:52:12;;;;;;;2.67;2.03;;;15.40;56.80;;;;;;5030988;28;20079;-72
2021/01/31 01:54:43;;;;;;;3.35;2.20;;;15.40;56.80;;;;;;5030395;28;20033;-72
2021/01/31 01:57:18;;;;;;;2.95;2.15;;;15.40;56.90;;;;;;5030546;28;20022;-73
2021/01/31 01:59:45;;;;;;;3.78;2.00;;;15.40;56.80;;;;;;5034924;28;20083;-73
2021/01/31 02:02:30;;;;;;;3.85;1.90;;;15.40;56.80;;;;;;5040084;28;20436;-73
2021/01/31 02:04:59;;;;;;;2.78;1.88;;;15.30;56.80;;;;;;5030198;28;20025;-73
2021/01/31 02:07:25;;;;;;;2.90;2.10;;;15.40;57.00;;;;;;5033715;28;20014;-72
2021/01/31 02:09:51;;;;;;;3.17;2.17;;;15.30;57.00;;;;;;5033943;28;20088;-72
2021/01/31 02:12:25;;;;;;;2.25;1.60;;;15.30;56.90;;;;;;5034136;28;20025;-73
2021/01/31 02:14:52;;;;;;;2.50;1.52;;;15.30;56.90;;;;;;5033841;28;20064;-72
2021/01/31 02:17:28;;;;;;;2.78;1.73;;;15.30;56.90;;;;;;5033831;28;20494;-72
2021/01/31 02:20:24;;;;;;;3.03;1.73;;;15.30;56.90;;;;;;5033618;28;20025;-73
2021/01/31 02:23:34;;;;;;;2.38;1.60;;;15.20;56.80;;;;;;5033508;28;20093;-73
2021/01/31 02:26:13;;;;;;;2.88;1.73;;;15.30;56.90;;;;;;5025749;28;20037;-72
2021/01/31 02:28:45;;;;;;;3.22;2.00;;;15.30;56.90;;;;;;5033455;28;20031;-73
2021/01/31 02:31:35;;;;;;;2.47;1.63;;;15.20;56.90;;;;;;5052252;28;20037;-73
2021/01/31 02:34:27;;;;;;;2.15;1.45;;;15.20;56.90;;;;;;5053762;28;20086;-72
2021/01/31 02:37:01;;;;;;;2.22;1.60;;;15.20;56.90;;;;;;5051761;28;20021;-73
2021/01/31 02:39:58;;;;;;;3.78;2.13;;;15.20;56.90;;;;;;5053636;28;20025;-73
2021/01/31 02:42:54;;;;;;;2.58;1.75;;;15.20;57.40;;;;;;5053528;28;20029;-73
2021/01/31 02:45:27;;;;;;;2.40;1.87;;;15.10;56.90;;;;;;5049794;28;20025;-73
2021/01/31 02:47:58;;;;;;;3.03;1.63;;;15.10;56.90;;;;;;5033057;28;20275;-72
2021/01/31 02:50:29;;;;;;;3.30;2.10;;;15.10;56.90;;;;;;5033394;28;20037;-72
2021/01/31 02:53:04;;;;;;;2.22;1.60;;;15.10;56.80;;;;;;5033278;28;20029;-72
2021/01/31 02:55:43;;;;;;;3.15;1.67;;;15.10;56.90;;;;;;5032089;28;20117;-72
2021/01/31 02:58:22;;;;;;;2.75;1.90;;;15.10;57.10;;;;;;5033014;28;20044;-73
2021/01/31 03:01:00;;;;;;;2.75;1.80;;;15.10;56.90;;;;;;5047545;28;20103;-72
2021/01/31 03:03:43;;;;;;;2.97;2.10;;;15.10;56.90;;;;;;5034313;28;20033;-72
2021/01/31 03:06:18;;;;;;;2.83;1.58;;;15.00;57.50;;;;;;5033057;28;20029;-72
2021/01/31 03:09:00;;;;;;;2.63;1.67;;;15.00;57.00;;;;;;5032884;28;20022;-73
2021/01/31 03:11:40;;;;;;;2.72;1.80;;;15.00;57.10;;;;;;5033137;28;20455;-73
2021/01/31 03:14:14;;;;;;;2.08;1.60;;;15.00;56.90;;;;;;5032736;28;20597;-73
2021/01/31 03:16:39;;;;;;;2.00;1.50;;;15.00;56.90;;;;;;5032737;28;20036;-74
2021/01/31 03:19:16;;;;;;;2.42;1.73;;;15.00;57.00;;;;;;5032070;28;20029;-73
2021/01/31 03:21:47;;;;;;;2.80;1.83;;;14.90;56.90;;;;;;5032644;28;20099;-73
2021/01/31 03:24:27;;;;;;;2.50;1.80;;;14.90;56.90;;;;;;5032958;28;20044;-73
2021/01/31 03:27:05;;;;;;;2.90;1.77;;;14.90;56.90;;;;;;5032404;28;20529;-73
2021/01/31 03:29:31;;;;;;;2.45;1.80;;;14.90;57.40;;;;;;5036722;28;20029;-73
2021/01/31 03:32:02;;;;;;;2.00;1.55;;;14.90;56.90;;;;;;5032857;28;20033;-73
2021/01/31 03:34:37;;;;;;;3.17;2.00;;;14.90;56.90;;;;;;5032885;28;20477;-74
2021/01/31 03:37:05;;;;;;;3.30;1.80;;;14.90;56.90;;;;;;5032661;28;20435;-73
2021/01/31 03:39:33;;;;;;;3.47;2.03;;;14.90;56.90;;;;;;5032627;28;20037;-73
2021/01/31 03:41:59;;;;;;;3.28;2.15;;;14.90;56.90;;;;;;5032474;28;20485;-73
2021/01/31 03:44:25;;;;;;;2.53;1.80;;;14.90;56.90;;;;;;5032261;28;20025;-73
2021/01/31 03:47:04;;;;;;;3.25;2.00;;;14.80;56.90;;;;;;5031999;28;20033;-73
2021/01/31 03:49:40;;;;;;;2.97;1.90;;;14.80;57.00;;;;;;5032701;28;20033;-73
2021/01/31 03:52:06;;;;;;;2.40;1.85;;;14.80;57.00;;;;;;5032382;28;20021;-73
2021/01/31 03:54:31;;;;;;;3.88;1.92;;;14.80;57.00;;;;;;5031991;28;20116;-77
2021/01/31 03:57:15;;;;;;;2.70;2.08;;;14.80;57.00;;;;;;5032503;28;20037;-73
2021/01/31 04:00:06;;;;;;;2.45;1.80;;;14.80;57.50;;;;;;5040305;28;20036;-73
2021/01/31 04:02:37;;;;;;;2.85;2.05;;;14.80;57.10;;;;;;5051767;28;20017;-77
2021/01/31 04:05:05;;;;;;;2.33;1.75;;;14.80;57.00;;;;;;5051953;28;20028;-73
2021/01/31 04:07:37;;;;;;;2.63;2.00;;;14.80;57.00;;;;;;5052298;28;20362;-72
2021/01/31 04:10:05;;;;;;;3.33;2.00;;;14.70;56.80;;;;;;5051762;28;20456;-73
2021/01/31 04:12:38;;;;;;;2.83;1.77;;;14.70;56.80;;;;;;5052027;28;20497;-72
2021/01/31 04:15:26;;;;;;;3.35;1.85;;;14.70;56.80;;;;;;5051434;28;20036;-73
2021/01/31 04:17:52;;;;;;;2.30;1.75;;;14.70;56.80;;;;;;5051643;28;20028;-73
2021/01/31 04:20:18;;;;;;;3.05;1.88;;;14.70;56.80;;;;;;5051614;28;20029;-72
2021/01/31 04:22:44;;;;;;;3.03;2.08;;;14.70;56.90;;;;;;5051216;28;20021;-72
2021/01/31 04:25:10;;;;;;;2.78;2.13;;;14.70;56.90;;;;;;5051431;28;20021;-72
2021/01/31 04:27:36;;;;;;;4.22;2.25;;;14.70;56.90;;;;;;5051321;28;20025;-73
2021/01/31 04:30:05;;;;;;;2.47;1.92;;;14.70;56.90;;;;;;5036002;28;20032;-76
2021/01/31 04:32:30;;;;;;;2.17;1.63;;;14.70;56.80;;;;;;5049666;28;20029;-72
2021/01/31 04:34:56;;;;;;;2.35;1.65;;;14.70;56.90;;;;;;5051064;28;20047;-72
2021/01/31 04:37:23;;;;;;;3.00;2.03;;;14.60;56.80;;;;;;5051450;28;20029;-73
2021/01/31 04:39:49;;;;;;;3.17;2.05;;;14.60;56.80;;;;;;5051128;28;20107;-73
2021/01/31 04:42:19;;;;;;;3.03;1.77;;;14.60;56.90;;;;;;5051312;28;20102;-73
2021/01/31 04:44:48;;;;;;;2.70;1.85;;;14.60;56.80;;;;;;5051054;28;20033;-74
2021/01/31 04:47:23;;;;;;;2.80;2.10;;;14.60;56.80;;;;;;5051154;28;20745;-73
2021/01/31 04:50:25;;;;;;;2.97;1.80;;;14.60;57.30;;;;;;5051001;28;20033;-73
2021/01/31 04:53:09;;;;;;;3.55;2.00;;;14.60;56.80;;;;;;5029558;28;20036;-73
2021/01/31 04:55:56;;;;;;;3.22;2.05;;;14.60;56.80;;;;;;5051099;28;20032;-73
2021/01/31 04:58:27;;;;;;;2.75;2.03;;;14.50;56.70;;;;;;5049432;28;20036;-73
2021/01/31 05:01:02;;;;;;;2.97;2.17;;;14.50;56.70;;;;;;5030842;28;20087;-73
2021/01/31 05:03:28;;;;;;;3.20;2.10;;;14.50;56.70;;;;;;5036553;28;20017;-73
2021/01/31 05:06:10;;;;;;;2.30;1.80;;;14.50;56.80;;;;;;5050752;28;20214;-72
2021/01/31 05:08:36;;;;;;;2.88;2.03;;;14.50;56.70;;;;;;5050744;28;20033;-74
2021/01/31 05:11:35;;;;;;;3.65;2.08;;;14.50;56.70;;;;;;5051265;28;20385;-76
2021/01/31 05:14:12;;;;;;;2.40;1.70;;;14.50;56.70;;;;;;5051239;28;20461;-73
2021/01/31 05:16:37;;;;;;;3.38;2.13;;;14.50;56.70;;;;;;5050622;28;20029;-73
2021/01/31 05:19:06;;;;;;;3.05;2.17;;;14.50;56.60;;;;;;5051052;28;20029;-73
2021/01/31 05:21:34;;;;;;;3.47;2.33;;;14.50;56.70;;;;;;5050823;28;20021;-76
2021/01/31 05:24:04;;;;;;;2.72;2.03;;;14.40;56.70;;;;;;5051155;28;20021;-73
2021/01/31 05:26:41;;;;;;;3.22;2.15;;;14.40;56.70;;;;;;5050843;28;20029;-74
2021/01/31 05:29:20;;;;;;;3.22;2.13;;;14.40;56.70;;;;;;5041754;28;20030;-73
2021/01/31 05:31:57;;;;;;;3.35;2.30;;;14.40;56.70;;;;;;5030386;28;20040;-73
2021/01/31 05:34:37;;;;;;;3.15;2.22;;;14.40;56.80;;;;;;5030602;28;20509;-73
2021/01/31 05:37:07;;;;;;;2.80;1.90;;;14.40;56.70;;;;;;5031021;28;20075;-73
2021/01/31 05:39:39;;;;;;;3.10;2.03;;;14.40;56.70;;;;;;5030667;28;20536;-72
2021/01/31 05:42:18;;;;;;;4.43;2.15;;;14.40;56.70;;;;;;5033544;28;20032;-72
2021/01/31 05:44:44;;;;;;;3.03;2.20;;;14.40;56.80;;;;;;5034281;28;20029;-72
2021/01/31 05:47:25;;;;;;;3.10;1.88;;;14.30;56.70;;;;;;5034637;28;20022;-73
2021/01/31 05:49:53;;;;;;;2.92;2.25;;;14.30;56.70;;;;;;5034335;28;20393;-73
2021/01/31 05:52:18;;;;;;;2.83;1.95;;;14.30;56.60;;;;;;5034538;28;20053;-73
2021/01/31 05:54:45;;;;;;;3.00;1.70;;;14.30;56.70;;;;;;5034035;28;20091;-72
2021/01/31 05:57:31;;;;;;;2.90;2.22;;;14.30;56.60;;;;;;5034453;28;20041;-72
2021/01/31 05:59:59;;;;;;;2.45;2.10;;;14.30;56.60;;;;;;5048075;28;20111;-73
2021/01/31 06:02:29;;;;;;;2.95;2.22;;;14.30;56.60;;;;;;5035956;28;20037;-72
2021/01/31 06:05:13;;;;;;;3.17;2.08;;;14.30;56.60;;;;;;5054197;28;20389;-73
2021/01/31 06:07:41;;;;;;;2.88;1.85;;;14.30;56.50;;;;;;5053605;28;20021;-72
2021/01/31 06:10:16;;;;;;;3.20;2.20;;;14.30;56.50;;;;;;5052818;28;20056;-73
2021/01/31 06:12:44;;;;;;;3.28;2.22;;;14.30;56.60;;;;;;5053851;28;20484;-73
2021/01/31 06:15:21;;;;;;;3.08;1.95;;;14.30;56.60;;;;;;5053891;28;20120;-72
2021/01/31 06:18:03;;;;;;;3.25;2.22;;;14.30;56.60;;;;;;5053637;28;20053;-72
2021/01/31 06:20:41;;;;;;;2.92;2.38;;;14.20;56.50;;;;;;5054218;28;20101;-73
2021/01/31 06:23:17;;;;;;;2.72;2.22;;;14.20;56.50;;;;;;5052511;28;20029;-72
2021/01/31 06:25:43;;;;;;;3.75;2.30;;;14.20;56.60;;;;;;5053688;28;20425;-71
2021/01/31 06:28:08;;;;;;;2.65;2.10;;;14.20;56.50;;;;;;5053133;28;20025;-72
2021/01/31 06:30:35;;;;;;;2.90;2.10;;;14.20;56.50;;;;;;5033443;28;20563;-72
2021/01/31 06:33:01;;;;;;;3.35;2.10;;;14.20;56.60;;;;;;5049580;28;20107;-72
2021/01/31 06:35:27;;;;;;;4.18;2.50;;;14.20;56.60;;;;;;5053787;28;20112;-72
2021/01/31 06:38:19;;;;;;;5.75;2.50;;;14.20;56.70;;;;;;5053445;28;20033;-73
2021/01/31 06:40:47;;;;;;;2.85;2.28;;;14.20;56.70;;;;;;5053481;28;20029;-72
2021/01/31 06:43:37;;;;;;;2.90;2.22;;;14.20;56.60;;;;;;5053149;28;20068;-72
2021/01/31 06:46:20;;;;;;;3.83;2.53;;;14.10;56.60;;;;;;5052105;28;20409;-73
2021/01/31 06:49:23;;;;;;;3.55;2.58;;;14.10;56.70;;;;;;5053069;28;20029;-72
2021/01/31 06:52:26;;;;;;;4.13;2.65;;;14.10;56.70;;;;;;5052846;28;20061;-73
2021/01/31 06:55:03;;;;;;;2.88;2.33;;;14.10;56.60;;;;;;5015925;28;20062;-73
2021/01/31 06:57:52;;;;;;;4.15;2.70;;;14.10;56.60;;;;;;5053656;28;20044;-72
2021/01/31 07:00:35;;;;;;;2.72;2.03;;;14.10;56.60;;;;;;5013616;28;20030;-72
2021/01/31 07:03:04;;;;;;;3.25;2.47;;;14.10;56.70;;;;;;5031755;28;20025;-73
2021/01/31 07:05:38;;;;;;;3.70;2.90;;;14.10;56.80;;;;;;5033531;28;20028;-72
2021/01/31 07:08:22;;;;;;;3.50;2.50;;;14.10;56.80;;;;;;5033213;28;20024;-72
2021/01/31 07:11:00;;;;;;;4.47;3.08;;;14.10;56.80;;;;;;5032793;28;20079;-72
2021/01/31 07:13:43;;;;;;;3.80;2.50;;;14.10;56.70;;;;;;5033101;28;20104;-73
2021/01/31 07:16:18;;;;;;;3.53;2.45;;;14.00;56.70;;;;;;5033211;28;20022;-72
2021/01/31 07:18:58;;;;;;;3.47;2.67;;;14.00;56.80;;;;;;5032487;28;20029;-72
2021/01/31 07:21:30;;;;;;;4.20;2.40;;;14.00;56.80;;;;;;5032869;28;20021;-72
2021/01/31 07:24:02;;;;;;;3.55;2.42;;;14.00;56.80;;;;;;5032462;28;20022;-72
2021/01/31 07:26:33;;;;;;;3.72;2.78;;;14.00;56.60;;;;;;5032962;28;20025;-72
2021/01/31 07:29:04;;;;;;;3.40;2.80;;;14.00;56.90;;;;;;5042066;28;20029;-72
2021/01/31 07:31:43;;;;;;;4.13;2.75;;;14.00;56.80;;;;;;5052649;28;20029;-73
2021/01/31 07:34:29;;;;;;;3.35;2.45;;;14.00;56.80;;;;;;5052261;28;20029;-72
2021/01/31 07:37:14;;;;;;;3.75;2.65;;;14.00;56.90;;;;;;5051919;28;20029;-72
2021/01/31 07:40:07;;;;;;;3.83;2.30;;;14.00;56.90;;;;;;5052185;28;20021;-72
2021/01/31 07:42:35;;;;;;;3.40;2.55;;;14.00;56.90;;;;;;5046585;28;20068;-73
2021/01/31 07:45:18;;;;;;;3.35;2.42;;;14.00;56.90;;;;;;5051311;28;20025;-72
2021/01/31 07:47:44;;;;;;;3.33;2.60;;;14.00;56.80;;;;;;5051875;28;20028;-72
2021/01/31 07:50:13;;;;;;;2.78;2.25;;;14.00;56.90;;;;;;5052216;28;20033;-73
2021/01/31 07:52:54;;;;;;;3.63;2.42;;;13.90;56.80;;;;;;5051710;28;20024;-72
2021/01/31 07:55:42;;;;;;;2.92;2.05;;;13.90;56.80;;;;;;5052195;28;20033;-73
2021/01/31 07:58:10;;;;;;;3.33;2.60;;;14.00;56.80;;;;;;5049784;28;20052;-72
2021/01/31 08:00:41;;;;;;;3.78;2.47;;;14.00;56.90;;;;;;5040420;28;20420;-72
2021/01/31 08:03:44;;;;;;;3.85;2.90;;;13.90;56.80;;;;;;5032089;28;20025;-72
2021/01/31 08:06:19;;;;;;;3.80;2.60;;;14.00;56.90;;;;;;5031547;28;20490;-72
2021/01/31 08:08:52;;;;;;;3.55;2.60;;;13.90;56.80;;;;;;5031710;28;20021;-71
2021/01/31 08:11:18;;;;;;;2.45;2.00;;;14.00;56.90;;;;;;5031470;28;20029;-71
2021/01/31 08:13:48;;;;;;;4.03;2.63;;;13.90;56.80;;;;;;5031567;28;20071;-71
2021/01/31 08:16:48;;;;;;;4.05;2.47;;;13.90;56.80;;;;;;5031763;28;20523;-73
2021/01/31 08:19:16;;;;;;;2.70;2.20;;;13.90;57.00;;;;;;5031600;28;20405;-74
2021/01/31 08:21:59;;;;;;;3.50;2.45;;;14.00;57.10;;;;;;5031627;28;20071;-74
2021/01/31 08:24:58;;;;;;;3.67;2.60;;;13.90;57.10;;;;;;5031511;28;20427;-75
2021/01/31 08:27:41;;;;;;;3.55;2.50;;;13.90;57.10;;;;;;5023772;28;20033;-74
2021/01/31 08:30:36;;;;;;;3.83;2.70;;;13.90;57.10;;;;;;5031542;28;20393;-73
2021/01/31 08:33:27;;;;;;;3.92;2.78;;;13.90;57.10;;;;;;5031819;28;20021;-74
2021/01/31 08:35:52;;;;;;;3.00;2.17;;;14.00;57.30;;;;;;5031115;28;20049;-74
2021/01/31 08:38:34;;;;;;;4.15;2.28;;;14.00;57.20;;;;;;5031518;28;20021;-73
2021/01/31 08:41:03;;;;;;;2.80;2.42;;;14.10;57.10;;;;;;5031625;28;20028;-73
2021/01/31 08:43:29;;;;;;;3.75;2.00;;;14.30;57.00;;;;;;5031728;28;20040;-73
2021/01/31 08:46:02;;;;;;;3.28;2.30;;;14.40;57.10;;;;;;5029595;28;20030;-73
2021/01/31 08:48:28;;;;;;;12.00;4.38;;;14.50;57.00;;;;;;5031560;28;20100;-73
2021/01/31 08:51:11;;;;;;;15.27;5.07;;;14.70;57.90;;;;;;5031138;28;20112;-74
2021/01/31 08:53:37;;;;;;;13.93;4.38;;;14.80;58.20;;;;;;5030927;28;20087;-75
2021/01/31 08:56:21;;;;;;;11.98;3.58;;;14.90;58.40;;;;;;5032068;28;20076;-74
2021/01/31 08:58:47;;;;;;;10.32;3.80;;;15.10;58.10;;;;;;5042215;28;20084;-73
2021/01/31 09:01:12;;;;;;;6.45;3.45;;;15.30;58.00;;;;;;5029272;28;20451;-74
2021/01/31 09:03:44;;;;;;;9.57;3.28;;;15.50;58.30;;;;;;5029322;28;20026;-74
2021/01/31 09:06:10;;;;;;;6.75;2.80;;;15.70;57.90;;;;;;5030522;28;20029;-72
2021/01/31 09:08:38;;;;;;;6.80;3.15;;;15.90;57.80;;;;;;5030632;28;20030;-74
2021/01/31 09:11:09;;;;;;;9.70;3.38;;;16.10;58.10;;;;;;5030856;28;20099;-74
2021/01/31 09:13:35;;;;;;;7.93;3.05;;;16.20;57.30;;;;;;5030423;28;20034;-73
2021/01/31 09:16:31;;;;;;;6.75;2.95;;;16.30;57.80;;;;;;5032306;28;20036;-71
2021/01/31 09:19:26;;;;;;;5.33;3.00;;;16.40;57.20;;;;;;5035158;28;20056;-72
2021/01/31 09:22:19;;;;;;;7.28;2.60;;;16.50;57.20;;;;;;5021919;28;20418;-72
2021/01/31 09:24:51;;;;;;;10.15;5.65;;;16.50;57.30;;;;;;5034357;28;20022;-72
2021/01/31 09:27:21;;;;;;;14.95;9.82;;;16.60;57.50;;;;;;5034870;28;20033;-70
2021/01/31 09:29:54;;;;;;;18.55;10.00;;;16.70;57.20;;;;;;5034545;28;20021;-72
2021/01/31 09:32:34;;;;;;;16.50;9.38;;;16.70;56.60;;;;;;5048153;28;20067;-71
2021/01/31 09:35:00;;;;;;;17.15;10.20;;;16.70;55.10;;;;;;5035491;28;20544;-73
2021/01/31 09:37:29;;;;;;;11.73;8.95;;;16.60;54.10;;;;;;5034382;28;20049;-73
2021/01/31 09:39:58;;;;;;;13.75;9.45;;;16.60;54.20;;;;;;5034367;28;20116;-75
2021/01/31 09:42:31;;;;;;;10.70;7.57;;;16.70;54.50;;;;;;5034652;28;20096;-73
2021/01/31 09:45:01;;;;;;;10.93;7.22;;;16.80;55.00;;;;;;5034918;28;20029;-74
2021/01/31 09:47:27;;;;;;;10.02;7.00;;;16.90;54.70;;;;;;5033441;28;20029;-73
2021/01/31 09:49:57;;;;;;;10.55;6.53;;;16.90;54.60;;;;;;5034153;28;20501;-73
2021/01/31 09:52:23;;;;;;;10.15;6.30;;;16.90;54.80;;;;;;5034416;28;20026;-73
2021/01/31 09:54:49;;;;;;;10.43;5.93;;;17.00;55.00;;;;;;5047568;28;20041;-74
2021/01/31 09:57:25;;;;;;;7.75;5.30;;;17.00;54.90;;;;;;5042493;28;20029;-74
2021/01/31 10:00:06;;;;;;;7.25;5.57;;;17.10;55.30;;;;;;5032689;28;20025;-73
2021/01/31 10:02:34;;;;;;;10.35;7.13;;;17.20;54.90;;;;;;5034329;28;20091;-73
2021/01/31 10:05:02;;;;;;;17.27;11.40;;;17.20;54.90;;;;;;5034319;28;20022;-73
2021/01/31 10:07:32;;;;;;;17.45;13.20;;;17.10;54.10;;;;;;5034462;28;20033;-73
2021/01/31 10:09:58;;;;;;;17.20;13.30;;;16.90;53.30;;;;;;5034526;28;20030;-74
2021/01/31 10:12:26;;;;;;;19.00;12.60;;;16.70;52.70;;;;;;5034155;28;20063;-73
2021/01/31 10:14:57;;;;;;;17.23;10.77;;;16.70;53.40;;;;;;5032499;28;20041;-73
2021/01/31 10:17:28;;;;;;;16.10;9.30;;;16.90;54.20;;;;;;5034153;28;20497;-73
2021/01/31 10:20:28;;;;;;;12.40;8.70;;;17.00;53.90;;;;;;5033582;28;20079;-73
2021/01/31 10:23:13;;;;;;;16.58;7.90;;;17.00;54.00;;;;;;5033734;28;20030;-73
2021/01/31 10:25:57;;;;;;;15.23;7.95;;;17.00;54.00;;;;;;5031626;28;20021;-74
2021/01/31 10:28:35;;;;;;;12.88;7.03;;;17.10;53.80;;;;;;5033900;28;20091;-74
2021/01/31 10:31:01;;;;;;;11.50;6.78;;;17.10;53.60;;;;;;5034069;28;20033;-74
2021/01/31 10:33:39;;;;;;;10.45;6.35;;;17.20;53.80;;;;;;5033855;28;20049;-73
2021/01/31 10:36:28;;;;;;;9.02;5.90;;;17.20;53.70;;;;;;5033746;28;20056;-76
2021/01/31 10:39:08;;;;;;;11.15;5.63;;;17.30;54.20;;;;;;5033468;28;20101;-74
2021/01/31 10:41:37;;;;;;;9.27;4.90;;;17.40;54.20;;;;;;5033408;28;20104;-74
2021/01/31 10:44:06;;;;;;;10.63;5.70;;;17.50;54.70;;;;;;5033349;28;20544;-74
2021/01/31 10:46:35;;;;;;;6.70;4.57;;;17.40;54.40;;;;;;5033359;28;20029;-73
2021/01/31 10:49:01;;;;;;;6.70;4.82;;;17.40;54.40;;;;;;5033710;28;20021;-73
2021/01/31 10:51:31;;;;;;;9.27;4.57;;;17.40;54.50;;;;;;5033895;28;20072;-73
2021/01/31 10:53:57;;;;;;;7.97;4.72;;;17.40;54.60;;;;;;5033488;28;20029;-74
2021/01/31 10:56:22;;;;;;;7.60;4.57;;;17.40;54.80;;;;;;5045838;28;20055;-73
2021/01/31 10:58:48;;;;;;;8.27;4.95;;;17.50;54.90;;;;;;5052893;28;20481;-73
2021/01/31 11:01:14;;;;;;;8.30;4.47;;;17.50;54.90;;;;;;5050278;28;20077;-74
2021/01/31 11:03:39;;;;;;;8.90;4.65;;;17.50;55.00;;;;;;5032733;28;20101;-73
2021/01/31 11:06:05;;;;;;;7.50;4.47;;;17.50;55.10;;;;;;5033238;28;20063;-73
2021/01/31 11:08:31;;;;;;;6.72;4.00;;;17.50;55.00;;;;;;5033358;28;20028;-73
2021/01/31 11:10:57;;;;;;;8.55;4.38;;;17.60;55.10;;;;;;5033322;28;20026;-73
2021/01/31 11:13:23;;;;;;;7.30;4.07;;;17.60;55.10;;;;;;5033071;28;20132;-73
2021/01/31 11:15:49;;;;;;;6.75;4.50;;;17.60;54.90;;;;;;5032596;28;20025;-73
2021/01/31 11:18:15;;;;;;;5.55;3.70;;;17.60;55.00;;;;;;5033247;28;20108;-73
2021/01/31 11:20:40;;;;;;;6.47;3.60;;;17.70;55.20;;;;;;5031776;28;20025;-76
2021/01/31 11:23:06;;;;;;;6.03;3.58;;;17.80;55.70;;;;;;5032530;28;20060;-76
2021/01/31 11:25:32;;;;;;;6.90;4.10;;;17.80;55.90;;;;;;5031696;28;20026;-76
2021/01/31 11:27:57;;;;;;;6.45;4.07;;;17.90;55.50;;;;;;5031336;28;20511;-76
2021/01/31 11:30:24;;;;;;;6.22;4.15;;;17.90;55.50;;;;;;5031966;28;20029;-76
2021/01/31 11:32:49;;;;;;;6.40;3.92;;;17.90;55.30;;;;;;5046564;28;20021;-76
2021/01/31 11:35:15;;;;;;;5.57;3.92;;;18.00;55.40;;;;;;5025526;28;20048;-76
2021/01/31 11:37:41;;;;;;;6.65;4.43;;;18.00;55.30;;;;;;5024814;28;20021;-75
2021/01/31 11:40:08;;;;;;;6.90;4.30;;;18.00;55.40;;;;;;5030444;28;20030;-76
2021/01/31 11:42:33;;;;;;;6.70;4.47;;;18.00;55.30;;;;;;5030330;28;20036;-76
2021/01/31 11:44:59;;;;;;;6.43;3.90;;;18.00;55.30;;;;;;5030896;28;20022;-76
2021/01/31 11:47:24;;;;;;;7.13;4.47;;;18.00;55.20;;;;;;5030075;28;20117;-76
2021/01/31 11:49:52;;;;;;;8.38;4.22;;;18.00;55.70;;;;;;5030742;28;20029;-76
2021/01/31 11:52:18;;;;;;;9.52;4.00;;;18.00;55.00;;;;;;5031327;28;20504;-76
2021/01/31 11:54:44;;;;;;;8.43;4.00;;;18.10;55.10;;;;;;5030799;28;20045;-76
2021/01/31 11:57:10;;;;;;;7.20;3.60;;;18.10;55.00;;;;;;5031223;28;20021;-76
2021/01/31 11:59:39;;;;;;;5.68;3.67;;;18.10;54.80;;;;;;5030209;28;20078;-75
2021/01/31 12:02:05;;;;;;;5.55;3.63;;;18.20;54.80;;;;;;5030255;28;20037;-76
2021/01/31 12:04:30;;;;;;;8.90;3.92;;;18.20;55.00;;;;;;5031235;28;20401;-75
2021/01/31 12:06:56;;;;;;;5.85;3.72;;;18.10;54.60;;;;;;5030366;28;20025;-73
2021/01/31 12:09:21;;;;;;;7.85;3.58;;;18.10;54.50;;;;;;5029971;28;20167;-74
2021/01/31 12:11:47;;;;;;;7.65;3.92;;;18.20;54.70;;;;;;5015793;28;20025;-74
2021/01/31 12:14:13;;;;;;;5.47;3.67;;;18.10;54.10;;;;;;5030881;28;20112;-74
2021/01/31 12:16:38;;;;;;;6.20;3.75;;;18.20;54.10;;;;;;5020540;28;20033;-73
2021/01/31 12:19:04;;;;;;;5.10;3.28;;;18.20;54.30;;;;;;5021256;28;20060;-73
2021/01/31 12:21:29;;;;;;;5.53;3.10;;;18.20;54.40;;;;;;5031017;28;20048;-71
2021/01/31 12:23:55;;;;;;;7.75;4.10;;;18.20;54.30;;;;;;5022583;28;20160;-73
2021/01/31 12:26:21;;;;;;;7.47;3.53;;;18.30;54.30;;;;;;5027075;28;20036;-73
2021/01/31 12:28:47;;;;;;;5.20;3.25;;;18.30;54.30;;;;;;5028918;28;20033;-75
2021/01/31 12:31:12;;;;;;;5.30;4.10;;;18.20;54.20;;;;;;5028256;28;20028;-72
2021/01/31 12:33:38;;;;;;;5.65;3.55;;;18.20;54.30;;;;;;5028767;28;20026;-72
2021/01/31 12:36:04;;;;;;;5.80;3.90;;;18.20;54.30;;;;;;5030244;28;20061;-72
2021/01/31 12:38:30;;;;;;;5.65;3.05;;;18.30;54.10;;;;;;5030929;28;20389;-73
2021/01/31 12:40:55;;;;;;;7.30;4.22;;;18.30;54.20;;;;;;5029428;28;20116;-73
2021/01/31 12:43:21;;;;;;;4.88;3.17;;;18.30;54.60;;;;;;5028923;28;20064;-74
2021/01/31 12:45:46;;;;;;;5.68;3.22;;;18.30;54.40;;;;;;5030502;28;20030;-72
2021/01/31 12:48:12;;;;;;;7.15;3.88;;;18.30;54.40;;;;;;5030933;28;20035;-72
2021/01/31 12:50:38;;;;;;;4.85;3.40;;;18.30;54.60;;;;;;5028992;28;20029;-72
2021/01/31 12:53:03;;;;;;;5.78;3.50;;;18.40;54.70;;;;;;5033194;28;20033;-72
2021/01/31 12:55:29;;;;;;;4.78;3.47;;;18.40;54.50;;;;;;5028939;28;20044;-74
2021/01/31 12:57:55;;;;;;;6.00;4.15;;;18.30;54.90;;;;;;5029803;28;20032;-72
2021/01/31 13:00:22;;;;;;;4.60;3.25;;;18.30;54.50;;;;;;5012003;28;20064;-72
2021/01/31 13:02:48;;;;;;;5.10;3.30;;;18.40;54.50;;;;;;5025528;28;20025;-71
2021/01/31 13:05:16;;;;;;;4.93;3.00;;;18.40;54.50;;;;;;5029971;28;20493;-71
2021/01/31 13:07:42;;;;;;;5.22;3.70;;;18.40;54.80;;;;;;5028926;28;20071;-76
2021/01/31 13:10:08;;;;;;;4.85;3.17;;;18.40;55.00;;;;;;5025730;28;20025;-75
2021/01/31 13:12:35;;;;;;;4.43;3.00;;;18.50;54.40;;;;;;5027235;28;20112;-78